Schrunz, Liechtenstein
Current Conditions -  °F | °C
As of 4:50 PM on Thursday 30 Oct 2014 (Local Time) from LSZR Reporting Station
Few Clouds Few Clouds  
Wind Chill: 57°   Ceiling: Unl
Heat Index: 57°   Visibility: 6mi
Dew Point: 48°   Wind: 3mph
Humidity: 72%   Direction: 190°S
Pressure: 30.27"   Gusts: NA
Location:  47.08°N, 9.93°E
Report Text: LSZR 301450Z 19003KT 9999 FEW050 14/09 Q1025 NOSIG RMK J
Loading
Personal Weather Stations






























Interactive Weather Map New forecast layout! Learn more

10-Day Weather Forecast

Advertisements
Track Severe Weather on mobile